メインページ
METAR-TAF:

METAR-TAF

空港 :

アンカラ-エセンボーア, トルコ

エセンボーア国際空港

緯度: 40-07N, 経度: 032-59E, 海抜: 953m

現時点の気象観測

当レポートは45分前の14:50(UTC)に作成
北東の風 6kt、からの間で変化する
気温 27°C
湿度 28%
気圧 1016 hPa
視程10km以上
高度4000ftの雲はほとんどない

METAR: LTAC 251450Z 04006KT 360V090 9999 FEW040 27/07 Q1016 NOSIG RMK RWY21L 06007KT 030V100 RWY03L 05004KT 020V090 RWY21R 07008KT 030V110

時間: 18:35 (15:35 UTC)


TAF: 見つかりません

4,000以上の空港の気象観測と天気予報(METAR報とTAF報)

利用可能な観測所は地図上に黄色い丸と赤い丸で示す。

丸の上にカーソルを重ねると観測所名を参照できる。

次にクリックすると気象観測と天気予報を参照できる。

マップの切り替え:黒色「×」印の緑ボタンをクリックして拡大、「-」印の緑ボタンをクリックして縮小、緑色の三角印をクリックして隣りの地図に切り替え


METAR-TAF: